createdAt,value
2022-09-15T00:02:49.308Z,18.94
2022-09-15T00:07:57.805Z,19.08
2022-09-15T00:13:06.245Z,19.18
2022-09-15T00:18:14.011Z,19.28
2022-09-15T00:23:22.426Z,19.35
2022-09-15T00:28:30.552Z,19.33
2022-09-15T00:33:38.485Z,19.48
2022-09-15T00:38:46.523Z,19.4
2022-09-15T00:43:53.875Z,19.2
2022-09-15T00:49:00.348Z,19.16
2022-09-15T00:54:06.941Z,19.16
2022-09-15T00:59:14.773Z,19.08
2022-09-15T01:04:22.032Z,19.02
2022-09-15T01:09:30.543Z,18.86
2022-09-15T01:14:38.229Z,18.72
2022-09-15T01:19:45.031Z,18.59
2022-09-15T01:24:52.699Z,18.52
2022-09-15T01:30:01.299Z,18.75
2022-09-15T01:35:10.629Z,18.84
2022-09-15T01:40:18.627Z,18.98
2022-09-15T01:45:26.838Z,18.88
2022-09-15T01:50:34.848Z,19.04
2022-09-15T01:55:42.578Z,19.15
2022-09-15T02:00:50.338Z,19.02
2022-09-15T02:05:58.017Z,18.88
2022-09-15T02:11:05.434Z,18.91
2022-09-15T02:17:43.944Z,18.81
2022-09-15T02:22:50.514Z,18.57
2022-09-15T02:27:57.293Z,18.42
2022-09-15T02:33:04.287Z,18.38
2022-09-15T02:38:11.844Z,18.33
2022-09-15T02:43:19.440Z,18.4
2022-09-15T02:48:26.489Z,18.34
2022-09-15T02:53:34.527Z,18.75
2022-09-15T02:58:42.344Z,18.94
2022-09-15T03:03:49.398Z,18.98
2022-09-15T03:08:57.989Z,19.08
2022-09-15T03:14:05.159Z,18.92
2022-09-15T03:19:12.946Z,18.86
2022-09-15T03:24:20.140Z,18.83
2022-09-15T03:29:27.990Z,18.86
2022-09-15T03:34:35.941Z,18.79
2022-09-15T03:39:43.831Z,18.85
2022-09-15T03:44:52.415Z,18.94
2022-09-15T03:49:59.938Z,19.01
2022-09-15T03:55:07.337Z,19.06
2022-09-15T04:00:13.762Z,19.14
2022-09-15T04:05:22.090Z,19.15
2022-09-15T04:10:30.486Z,19.04
2022-09-15T04:15:43.061Z,19.06
2022-09-15T04:20:50.911Z,19.02
2022-09-15T04:25:58.209Z,19.04
2022-09-15T04:31:06.525Z,19.2
2022-09-15T04:36:13.700Z,19.36
2022-09-15T04:41:21.148Z,19.3
2022-09-15T04:46:28.695Z,19.36
2022-09-15T04:51:36.547Z,19.44
2022-09-15T04:56:44.911Z,19.4
2022-09-15T05:01:52.501Z,19.41
2022-09-15T05:07:00.776Z,19.38
2022-09-15T05:12:09.167Z,19.44
2022-09-15T05:17:16.379Z,19.44
2022-09-15T05:22:24.252Z,19.58
2022-09-15T05:27:32.597Z,19.78
2022-09-15T05:32:40.280Z,20.16
2022-09-15T05:37:48.070Z,20.28
2022-09-15T05:42:55.923Z,20.38
2022-09-15T05:48:03.442Z,20.44
2022-09-15T05:53:10.006Z,20.54
2022-09-15T05:58:18.315Z,20.6
2022-09-15T06:03:25.699Z,20.6
2022-09-15T06:08:33.575Z,20.43
2022-09-15T06:13:42.557Z,20.35
2022-09-15T06:18:50.231Z,20.4
2022-09-15T06:23:58.311Z,20.58
2022-09-15T06:29:07.354Z,20.61
2022-09-15T06:34:14.617Z,20.65
2022-09-15T06:39:23.503Z,20.7
2022-09-15T06:44:30.994Z,20.84
2022-09-15T06:49:38.165Z,21.03
2022-09-15T06:54:46.200Z,21.16
2022-09-15T06:59:54.257Z,21.15
2022-09-15T07:05:01.655Z,21.18
2022-09-15T07:10:09.470Z,21.23
2022-09-15T07:15:16.881Z,21.26
2022-09-15T07:20:24.174Z,21.22
2022-09-15T07:25:32.258Z,21.3
2022-09-15T07:30:40.218Z,21.44
2022-09-15T07:35:47.801Z,21.52
2022-09-15T07:40:55.858Z,21.64
2022-09-15T07:46:04.161Z,21.69
2022-09-15T07:51:11.912Z,21.89
2022-09-15T07:56:19.874Z,22.52
2022-09-15T08:01:29.466Z,22.94
2022-09-15T08:06:36.412Z,22.64
2022-09-15T08:11:43.843Z,22.78
2022-09-15T08:16:51.053Z,22.75
2022-09-15T08:21:57.912Z,22.43
2022-09-15T08:27:05.274Z,22.42
2022-09-15T08:32:13.691Z,22.16
2022-09-15T08:37:21.280Z,22.1
2022-09-15T08:42:29.040Z,22.25
2022-09-15T08:47:37.222Z,22.04
2022-09-15T08:52:45.290Z,21.96
2022-09-15T08:57:54.244Z,21.97
2022-09-15T09:03:00.740Z,21.85
2022-09-15T09:08:07.939Z,21.69
2022-09-15T09:13:16.139Z,21.57
2022-09-15T09:18:23.669Z,21.44
2022-09-15T09:23:31.419Z,21.36
2022-09-15T09:28:38.914Z,21.2
2022-09-15T09:33:46.493Z,21.06
2022-09-15T09:38:53.058Z,20.93
2022-09-15T09:44:00.901Z,20.64
2022-09-15T09:49:08.607Z,19.85
2022-09-15T09:54:15.290Z,19.44
2022-09-15T09:59:22.344Z,18.73
2022-09-15T10:04:31.566Z,18.3
2022-09-15T10:09:40.328Z,18.29
2022-09-15T10:14:47.344Z,18.46
2022-09-15T10:19:55.232Z,18.62
2022-09-15T10:25:02.611Z,18.64
2022-09-15T10:30:09.733Z,18.58
2022-09-15T10:35:17.385Z,18.4
2022-09-15T10:40:26.330Z,18.1
2022-09-15T10:45:33.452Z,18.14
2022-09-15T10:50:41.436Z,18.47
2022-09-15T10:55:49.979Z,18.83
2022-09-15T11:00:58.796Z,19.17
2022-09-15T11:06:05.734Z,19.38
2022-09-15T11:11:12.622Z,19.49
2022-09-15T11:16:21.253Z,19.67
2022-09-15T11:21:27.937Z,19.88
2022-09-15T11:26:36.763Z,19.99
2022-09-15T11:31:44.560Z,20.04
2022-09-15T11:36:51.526Z,20.12
2022-09-15T11:41:59.773Z,20.14
2022-09-15T11:47:07.185Z,20.2
2022-09-15T11:52:15.241Z,20.23
2022-09-15T11:57:21.611Z,20.28
2022-09-15T12:02:30.046Z,20.29
2022-09-15T12:07:37.494Z,20.34
2022-09-15T12:12:45.658Z,20.32
2022-09-15T12:17:53.968Z,20.36
2022-09-15T12:23:00.738Z,20.58
2022-09-15T12:28:09.209Z,20.83
2022-09-15T12:33:17.010Z,20.82
2022-09-15T12:38:25.417Z,21.0
2022-09-15T12:43:33.378Z,21.06
2022-09-15T12:48:41.000Z,21.14
2022-09-15T12:53:47.778Z,21.21
2022-09-15T12:58:55.200Z,21.29
2022-09-15T13:04:02.820Z,21.46
2022-09-15T13:09:10.659Z,21.53
2022-09-15T13:14:18.416Z,21.64
2022-09-15T13:19:26.332Z,21.88
2022-09-15T13:24:34.547Z,22.3
2022-09-15T13:29:41.426Z,22.3
2022-09-15T13:34:48.643Z,22.3
2022-09-15T13:39:56.187Z,22.35
2022-09-15T13:45:04.121Z,22.72
2022-09-15T13:50:11.483Z,23.57
2022-09-15T13:55:19.010Z,23.85
2022-09-15T14:00:26.492Z,23.47
2022-09-15T14:05:35.492Z,22.83
2022-09-15T14:10:42.300Z,22.58
2022-09-15T14:15:50.213Z,22.51
2022-09-15T14:20:57.860Z,22.38
2022-09-15T14:26:05.456Z,21.9
2022-09-15T14:31:12.474Z,20.92
2022-09-15T14:36:18.790Z,20.32
2022-09-15T14:41:26.644Z,19.65
2022-09-15T14:46:33.840Z,18.72
2022-09-15T14:51:41.025Z,18.62
2022-09-15T14:56:50.282Z,18.79
2022-09-15T15:01:58.026Z,18.82
2022-09-15T15:07:05.864Z,19.04
2022-09-15T15:12:14.937Z,19.58
2022-09-15T15:17:22.488Z,19.75
2022-09-15T15:22:32.445Z,20.12
2022-09-15T15:27:41.061Z,20.22
2022-09-15T15:32:48.778Z,20.17
2022-09-15T15:37:56.109Z,20.2
2022-09-15T15:43:03.987Z,21.88
2022-09-15T15:48:11.883Z,23.03
2022-09-15T15:53:20.189Z,22.38
2022-09-15T15:58:27.524Z,21.42
2022-09-15T16:03:34.766Z,20.62
2022-09-15T16:08:42.775Z,20.12
2022-09-15T16:13:50.343Z,19.73
2022-09-15T16:18:58.690Z,19.47
2022-09-15T16:24:06.570Z,19.21
2022-09-15T16:29:14.301Z,19.02
2022-09-15T16:34:21.889Z,18.88
2022-09-15T16:39:30.713Z,18.69
2022-09-15T16:44:38.024Z,18.52
2022-09-15T16:49:45.789Z,18.35
2022-09-15T16:54:53.096Z,18.32
2022-09-15T17:00:01.409Z,18.21
2022-09-15T17:05:08.747Z,18.01
2022-09-15T17:10:16.729Z,17.82
2022-09-15T17:15:23.119Z,17.65
2022-09-15T17:20:31.025Z,17.48
2022-09-15T17:25:38.226Z,17.33
2022-09-15T17:30:45.439Z,17.22
2022-09-15T17:35:53.263Z,17.14
2022-09-15T17:41:00.307Z,17.06
2022-09-15T17:46:07.891Z,17.01
2022-09-15T17:51:14.900Z,16.94
2022-09-15T17:56:23.175Z,16.9
2022-09-15T18:01:29.890Z,16.83
2022-09-15T18:06:37.700Z,16.78
2022-09-15T18:11:50.660Z,16.79
2022-09-15T18:16:57.223Z,16.96
2022-09-15T18:22:05.087Z,17.02
2022-09-15T18:27:12.205Z,17.02
2022-09-15T18:32:19.390Z,16.96
2022-09-15T18:37:27.745Z,16.86
2022-09-15T18:42:35.145Z,16.78
2022-09-15T18:47:43.339Z,16.68
2022-09-15T18:52:57.040Z,16.62
2022-09-15T18:58:03.827Z,16.64
2022-09-15T19:03:10.940Z,16.68
2022-09-15T19:08:18.865Z,16.73
2022-09-15T19:13:26.657Z,16.72
2022-09-15T19:18:34.031Z,16.94
2022-09-15T19:23:41.698Z,17.17
2022-09-15T19:28:49.903Z,17.41
2022-09-15T19:33:56.053Z,17.52
2022-09-15T19:39:03.938Z,17.6
2022-09-15T19:44:11.710Z,17.59
2022-09-15T19:49:20.246Z,17.61
2022-09-15T19:54:42.758Z,17.02
2022-09-15T19:59:50.331Z,16.44
2022-09-15T20:04:58.970Z,16.15
2022-09-15T20:10:07.607Z,15.99
2022-09-15T20:15:15.028Z,15.84
2022-09-15T20:20:22.000Z,15.7
2022-09-15T20:25:30.309Z,15.6
2022-09-15T20:30:38.246Z,15.46
2022-09-15T20:35:44.881Z,15.58
2022-09-15T20:40:52.938Z,15.55
2022-09-15T20:45:59.923Z,15.44
2022-09-15T20:51:07.456Z,15.44
2022-09-15T20:56:15.545Z,15.36
2022-09-15T21:01:22.793Z,15.28
2022-09-15T21:06:31.013Z,15.01
2022-09-15T21:11:42.729Z,14.79
2022-09-15T21:16:50.758Z,14.51
2022-09-15T21:21:57.375Z,14.4
2022-09-15T21:27:04.598Z,14.12
2022-09-15T21:32:12.422Z,13.85
2022-09-15T21:37:19.938Z,13.79
2022-09-15T21:42:42.492Z,13.8
2022-09-15T21:43:09.989Z,13.8
2022-09-15T21:48:11.992Z,13.64
2022-09-15T21:48:31.141Z,13.64
2022-09-15T21:53:30.746Z,13.52
2022-09-15T21:58:38.979Z,13.33
2022-09-15T22:03:46.610Z,13.34
2022-09-15T22:08:53.890Z,13.3
2022-09-15T22:14:01.211Z,13.32
2022-09-15T22:19:10.241Z,13.4
2022-09-15T22:24:17.502Z,13.3
2022-09-15T22:29:24.713Z,13.19
2022-09-15T22:34:33.751Z,13.19
2022-09-15T22:39:42.291Z,13.12
2022-09-15T22:44:51.330Z,13.2
2022-09-15T22:49:57.995Z,13.16
2022-09-15T22:55:06.085Z,13.1
2022-09-15T23:00:13.692Z,13.01
2022-09-15T23:05:21.949Z,12.92
2022-09-15T23:10:28.763Z,12.92
2022-09-15T23:15:36.588Z,12.83
2022-09-15T23:20:44.755Z,12.71
2022-09-15T23:25:54.049Z,12.62
2022-09-15T23:31:00.692Z,12.52
2022-09-15T23:36:07.932Z,12.48
2022-09-15T23:41:15.162Z,12.42
2022-09-15T23:46:23.719Z,12.38
2022-09-15T23:51:31.745Z,12.44
2022-09-15T23:56:40.017Z,12.36
